createdAt,value
2022-11-03T00:01:49.213Z,10.40
2022-11-03T00:04:17.948Z,10.40
2022-11-03T00:06:48.060Z,10.40
2022-11-03T00:09:16.508Z,10.40
2022-11-03T00:11:44.788Z,10.40
2022-11-03T00:14:12.762Z,10.40
2022-11-03T00:16:39.939Z,10.30
2022-11-03T00:19:08.182Z,10.30
2022-11-03T00:21:35.118Z,10.30
2022-11-03T00:24:05.016Z,10.40
2022-11-03T00:26:33.429Z,10.40
2022-11-03T00:29:06.356Z,10.30
2022-11-03T00:31:35.186Z,10.30
2022-11-03T00:34:02.785Z,10.30
2022-11-03T00:36:35.031Z,10.30
2022-11-03T00:39:02.263Z,10.30
2022-11-03T00:41:28.909Z,10.20
2022-11-03T00:43:57.182Z,10.20
2022-11-03T00:46:25.032Z,10.20
2022-11-03T00:48:51.862Z,10.10
2022-11-03T00:51:24.916Z,10.10
2022-11-03T00:54:00.757Z,10.10
2022-11-03T00:56:32.823Z,10.20
2022-11-03T00:59:01.044Z,8.50
2022-11-03T01:01:33.307Z,10.10
2022-11-03T01:04:18.920Z,10.10
2022-11-03T01:06:51.120Z,10.00
2022-11-03T01:09:17.927Z,10.00
2022-11-03T01:11:55.810Z,10.00
2022-11-03T01:14:22.923Z,10.00
2022-11-03T01:16:49.548Z,10.00
2022-11-03T01:19:16.162Z,10.00
2022-11-03T01:21:43.681Z,10.10
2022-11-03T01:24:10.273Z,10.10
2022-11-03T01:26:36.982Z,10.10
2022-11-03T01:29:05.253Z,9.00
2022-11-03T01:31:31.871Z,10.10
2022-11-03T01:33:58.557Z,10.20
2022-11-03T01:36:25.435Z,10.20
2022-11-03T01:38:53.709Z,10.10
2022-11-03T01:41:22.725Z,10.20
2022-11-03T01:43:52.059Z,10.20
2022-11-03T01:46:25.779Z,10.30
2022-11-03T01:49:06.152Z,10.30
2022-11-03T01:51:35.055Z,10.30
2022-11-03T01:54:08.319Z,10.30
2022-11-03T01:56:38.728Z,10.30
2022-11-03T01:59:05.444Z,10.30
2022-11-03T02:01:32.533Z,10.40
2022-11-03T02:04:04.380Z,10.40
2022-11-03T02:06:31.433Z,10.40
2022-11-03T02:09:02.812Z,10.30
2022-11-03T02:11:49.278Z,10.30
2022-11-03T02:14:15.867Z,10.40
2022-11-03T02:16:48.708Z,10.40
2022-11-03T02:19:41.024Z,10.40
2022-11-03T02:22:38.886Z,10.50
2022-11-03T02:25:37.807Z,10.50
2022-11-03T02:28:06.021Z,10.50
2022-11-03T02:30:45.023Z,10.50
2022-11-03T02:33:37.262Z,10.50
2022-11-03T02:36:12.622Z,10.50
2022-11-03T02:38:47.254Z,10.50
2022-11-03T02:41:16.131Z,10.60
2022-11-03T02:43:44.720Z,10.50
2022-11-03T02:46:13.521Z,10.50
2022-11-03T02:48:40.296Z,10.50
2022-11-03T02:51:07.070Z,10.60
2022-11-03T02:53:42.744Z,10.60
2022-11-03T02:56:18.149Z,10.60
2022-11-03T02:59:14.099Z,10.50
2022-11-03T03:02:14.399Z,10.60
2022-11-03T03:04:46.859Z,10.60
2022-11-03T03:07:20.423Z,10.60
2022-11-03T03:09:57.740Z,10.60
2022-11-03T03:12:25.572Z,10.50
2022-11-03T03:14:53.872Z,10.50
2022-11-03T03:17:40.763Z,10.40
2022-11-03T03:20:19.089Z,10.50
2022-11-03T03:23:18.385Z,10.50
2022-11-03T03:26:13.821Z,10.40
2022-11-03T03:28:47.683Z,10.40
2022-11-03T03:31:16.853Z,10.40
2022-11-03T03:33:47.822Z,8.90
2022-11-03T03:36:18.819Z,10.30
2022-11-03T03:38:50.734Z,10.20
2022-11-03T03:41:22.111Z,10.20
2022-11-03T03:43:56.300Z,10.20
2022-11-03T03:46:26.206Z,10.10
2022-11-03T03:48:52.867Z,10.10
2022-11-03T03:51:23.021Z,10.10
2022-11-03T03:53:53.728Z,10.10
2022-11-03T03:56:25.403Z,10.00
2022-11-03T03:58:52.008Z,10.10
2022-11-03T04:01:18.779Z,10.00
2022-11-03T04:03:45.479Z,10.00
2022-11-03T04:06:12.219Z,10.00
2022-11-03T04:08:38.916Z,10.10
2022-11-03T04:11:24.031Z,10.00
2022-11-03T04:14:09.326Z,10.10
2022-11-03T04:16:54.783Z,10.10
2022-11-03T04:19:40.160Z,10.10
2022-11-03T04:22:16.832Z,10.10
2022-11-03T04:24:45.252Z,10.10
2022-11-03T04:27:21.019Z,10.10
2022-11-03T04:29:47.625Z,10.10
2022-11-03T04:32:17.154Z,10.10
2022-11-03T04:34:46.126Z,10.10
2022-11-03T04:37:14.171Z,10.10
2022-11-03T04:39:41.798Z,10.00
2022-11-03T04:42:19.270Z,10.00
2022-11-03T04:44:49.740Z,10.10
2022-11-03T04:47:17.558Z,10.00
2022-11-03T04:49:46.898Z,10.00
2022-11-03T04:52:19.848Z,10.00
2022-11-03T04:54:48.708Z,10.00
2022-11-03T04:57:17.572Z,10.00
2022-11-03T04:59:47.481Z,10.00
2022-11-03T05:02:17.358Z,10.00
2022-11-03T05:04:43.962Z,10.10
2022-11-03T05:07:31.029Z,10.00
2022-11-03T05:09:57.929Z,10.00
2022-11-03T05:12:24.953Z,10.00
2022-11-03T05:14:57.092Z,10.00
2022-11-03T05:17:29.298Z,9.90
2022-11-03T05:19:59.326Z,9.90
2022-11-03T05:22:31.597Z,9.90
2022-11-03T05:25:02.702Z,9.80
2022-11-03T05:27:29.391Z,9.80
2022-11-03T05:30:00.980Z,9.80
2022-11-03T05:32:33.090Z,9.90
2022-11-03T05:34:59.751Z,9.90
2022-11-03T05:37:31.855Z,9.90
2022-11-03T05:40:01.145Z,9.90
2022-11-03T05:42:36.095Z,9.80
2022-11-03T05:45:12.046Z,9.80
2022-11-03T05:47:40.130Z,9.70
2022-11-03T05:50:27.986Z,9.70
2022-11-03T05:52:57.813Z,9.80
2022-11-03T05:55:33.105Z,9.80
2022-11-03T05:58:05.420Z,9.90
2022-11-03T06:00:36.672Z,9.90
2022-11-03T06:03:04.869Z,9.80
2022-11-03T06:05:33.506Z,9.80
2022-11-03T06:08:15.556Z,9.80
2022-11-03T06:10:48.329Z,9.80
2022-11-03T06:13:19.858Z,9.90
2022-11-03T06:15:47.913Z,9.90
2022-11-03T06:18:22.984Z,9.90
2022-11-03T06:20:59.573Z,9.90
2022-11-03T06:23:26.799Z,10.00
2022-11-03T06:25:55.558Z,11.20
2022-11-03T06:28:30.607Z,10.00
2022-11-03T06:30:57.484Z,10.00
2022-11-03T06:33:27.762Z,10.00
2022-11-03T06:36:00.558Z,9.90
2022-11-03T06:38:31.516Z,10.20
2022-11-03T06:40:58.774Z,11.20
2022-11-03T06:43:32.257Z,10.50
2022-11-03T06:46:01.015Z,12.00
2022-11-03T06:48:33.234Z,12.10
2022-11-03T06:51:01.073Z,11.60
2022-11-03T06:53:31.523Z,11.30
2022-11-03T06:55:58.800Z,11.20
2022-11-03T06:58:36.669Z,10.80
2022-11-03T07:01:14.210Z,10.50
2022-11-03T07:03:40.977Z,10.30
2022-11-03T07:06:10.415Z,10.30
2022-11-03T07:09:09.637Z,10.20
2022-11-03T07:11:50.584Z,10.10
2022-11-03T07:14:27.466Z,10.10
2022-11-03T07:16:59.516Z,10.20
2022-11-03T07:19:38.643Z,10.10
2022-11-03T07:22:15.062Z,10.20
2022-11-03T07:24:45.611Z,10.20
2022-11-03T07:27:29.204Z,10.20
2022-11-03T07:30:17.523Z,10.30
2022-11-03T07:32:44.378Z,10.30
2022-11-03T07:35:16.928Z,10.30
2022-11-03T07:37:47.743Z,10.40
2022-11-03T07:40:18.235Z,10.50
2022-11-03T07:42:44.915Z,10.50
2022-11-03T07:45:37.623Z,10.50
2022-11-03T07:48:36.081Z,10.50
2022-11-03T07:51:31.667Z,10.50
2022-11-03T07:54:19.459Z,10.50
2022-11-03T07:56:50.703Z,10.60
2022-11-03T07:59:21.735Z,10.60
2022-11-03T08:01:52.006Z,10.70
2022-11-03T08:04:28.266Z,10.80
2022-11-03T08:06:55.149Z,13.30
2022-11-03T08:09:21.831Z,10.90
2022-11-03T08:11:49.423Z,11.00
2022-11-03T08:14:16.057Z,11.00
2022-11-03T08:16:42.963Z,11.00
2022-11-03T08:19:09.897Z,11.10
2022-11-03T08:21:36.577Z,11.10
2022-11-03T08:24:03.407Z,11.20
2022-11-03T08:26:30.057Z,11.20
2022-11-03T08:28:56.905Z,11.20
2022-11-03T08:31:23.529Z,11.40
2022-11-03T08:33:50.106Z,11.40
2022-11-03T08:36:17.168Z,11.60
2022-11-03T08:38:43.902Z,11.60
2022-11-03T08:41:10.618Z,11.60
2022-11-03T08:43:37.216Z,11.60
2022-11-03T08:46:12.996Z,11.70
2022-11-03T08:48:43.833Z,11.80
2022-11-03T08:51:13.394Z,11.90
2022-11-03T08:53:42.402Z,11.90
2022-11-03T08:56:12.262Z,11.90
2022-11-03T08:58:40.681Z,11.90
2022-11-03T09:01:08.055Z,12.00
2022-11-03T09:03:34.950Z,12.00
2022-11-03T09:06:01.771Z,12.00
2022-11-03T09:11:15.025Z,12.00
2022-11-03T09:13:41.623Z,12.10
2022-11-03T09:16:08.549Z,12.20
2022-11-03T09:18:35.119Z,12.20
2022-11-03T09:21:01.760Z,12.20
2022-11-03T09:23:28.378Z,12.30
2022-11-03T09:25:55.040Z,12.40
2022-11-03T09:28:21.621Z,12.40
2022-11-03T09:30:48.218Z,12.40
2022-11-03T09:33:14.829Z,12.50
2022-11-03T09:35:41.845Z,12.40
2022-11-03T09:38:08.675Z,12.40
2022-11-03T09:40:36.161Z,12.40
2022-11-03T09:43:03.288Z,12.40
2022-11-03T09:45:30.004Z,12.50
2022-11-03T09:47:56.882Z,12.50
2022-11-03T09:50:24.112Z,12.60
2022-11-03T09:52:55.357Z,12.70
2022-11-03T09:55:25.849Z,12.70
2022-11-03T09:57:55.002Z,12.80
2022-11-03T10:00:23.510Z,12.80
2022-11-03T10:02:50.935Z,12.80
2022-11-03T10:05:23.973Z,12.80
2022-11-03T10:10:26.195Z,12.80
2022-11-03T10:12:53.362Z,12.90
2022-11-03T10:15:23.166Z,12.90
2022-11-03T10:17:50.657Z,13.00
2022-11-03T10:20:22.458Z,13.10
2022-11-03T10:22:53.495Z,13.20
2022-11-03T10:25:29.170Z,13.10
2022-11-03T10:28:17.497Z,13.20
2022-11-03T10:31:11.743Z,13.20
2022-11-03T10:33:53.806Z,13.20
2022-11-03T10:36:20.495Z,13.20
2022-11-03T10:38:48.036Z,13.30
2022-11-03T10:41:22.662Z,13.40
2022-11-03T10:44:11.824Z,13.50
2022-11-03T10:46:55.026Z,13.60
2022-11-03T10:49:21.945Z,13.60
2022-11-03T10:51:51.481Z,13.60
2022-11-03T10:54:20.436Z,13.70
2022-11-03T10:56:48.283Z,13.70
2022-11-03T10:59:32.787Z,13.80
2022-11-03T11:02:00.894Z,13.90
2022-11-03T11:04:27.955Z,14.00
2022-11-03T11:06:54.970Z,14.10
2022-11-03T11:09:26.579Z,14.20
2022-11-03T11:12:02.529Z,14.20
2022-11-03T11:14:29.093Z,14.20
2022-11-03T11:16:59.880Z,14.20
2022-11-03T11:19:28.114Z,14.20
2022-11-03T11:21:54.682Z,14.20
2022-11-03T11:24:43.083Z,14.30
2022-11-03T11:27:31.913Z,14.30
2022-11-03T11:29:59.625Z,14.40
2022-11-03T11:32:44.615Z,14.50
2022-11-03T11:35:31.431Z,14.50
2022-11-03T11:38:36.284Z,14.50
2022-11-03T11:41:02.979Z,14.60
2022-11-03T11:43:29.684Z,14.60
2022-11-03T11:46:24.286Z,14.60
2022-11-03T11:48:56.955Z,14.60
2022-11-03T11:51:24.714Z,14.50
2022-11-03T11:54:16.210Z,14.50
2022-11-03T11:56:48.468Z,14.40
2022-11-03T11:59:25.716Z,14.40
2022-11-03T12:01:55.435Z,14.40
2022-11-03T12:04:23.470Z,14.50
2022-11-03T12:06:50.162Z,14.60
2022-11-03T12:09:20.184Z,14.70
2022-11-03T12:11:56.253Z,14.70
2022-11-03T12:14:28.958Z,14.70
2022-11-03T12:16:56.741Z,14.90
2022-11-03T12:19:43.926Z,14.90
2022-11-03T12:22:29.030Z,14.90
2022-11-03T12:25:04.638Z,14.90
2022-11-03T12:27:31.202Z,14.90
2022-11-03T12:30:03.760Z,14.90
2022-11-03T12:32:33.371Z,14.90
2022-11-03T12:35:05.220Z,15.00
2022-11-03T12:37:31.966Z,15.00
2022-11-03T12:39:58.606Z,15.10
2022-11-03T12:42:25.725Z,15.10
2022-11-03T12:44:52.777Z,15.10
2022-11-03T12:47:20.259Z,15.20
2022-11-03T12:49:48.387Z,15.20
2022-11-03T12:52:15.376Z,15.30
2022-11-03T12:54:44.762Z,15.20
2022-11-03T12:57:11.732Z,15.20
2022-11-03T12:59:38.357Z,15.20
2022-11-03T13:02:05.158Z,15.10
2022-11-03T13:04:31.927Z,15.10
2022-11-03T13:06:58.495Z,15.10
2022-11-03T13:09:25.106Z,15.10
2022-11-03T13:12:10.384Z,15.00
2022-11-03T13:14:36.994Z,15.00
2022-11-03T13:17:03.882Z,14.90
2022-11-03T13:19:30.658Z,14.80
2022-11-03T13:21:57.376Z,14.80
2022-11-03T13:24:23.993Z,14.90
2022-11-03T13:26:50.586Z,14.90
2022-11-03T13:29:17.176Z,14.90
2022-11-03T13:31:46.666Z,14.90
2022-11-03T13:34:13.295Z,14.90
2022-11-03T13:36:39.922Z,14.90
2022-11-03T13:39:06.492Z,14.90
2022-11-03T13:41:33.062Z,14.90
2022-11-03T13:43:59.637Z,14.90
2022-11-03T13:46:26.321Z,14.90
2022-11-03T13:49:40.939Z,14.90
2022-11-03T13:51:39.806Z,14.90
2022-11-03T13:59:40.522Z,14.60
2022-11-03T14:04:53.720Z,14.60
2022-11-03T14:07:20.403Z,14.60
2022-11-03T14:09:47.090Z,14.60
2022-11-03T14:12:32.095Z,14.50
2022-11-03T14:14:59.091Z,14.40
2022-11-03T14:17:25.780Z,14.50
2022-11-03T14:19:56.584Z,14.40
2022-11-03T14:22:25.961Z,14.30
2022-11-03T14:24:52.888Z,14.50
2022-11-03T14:27:19.987Z,14.80
2022-11-03T14:29:50.065Z,14.70
2022-11-03T14:32:18.005Z,14.60
2022-11-03T14:34:45.310Z,14.50
2022-11-03T14:37:12.800Z,14.50
2022-11-03T14:39:40.334Z,14.40
2022-11-03T14:42:15.187Z,14.40
2022-11-03T14:44:44.067Z,14.40
2022-11-03T14:47:13.903Z,14.30
2022-11-03T14:49:40.797Z,14.30
2022-11-03T14:52:07.697Z,14.30
2022-11-03T14:54:35.999Z,14.30
2022-11-03T14:57:03.325Z,14.30
2022-11-03T14:59:29.959Z,14.30
2022-11-03T15:01:57.505Z,14.20
2022-11-03T15:04:24.542Z,14.20
2022-11-03T15:06:51.212Z,14.20
2022-11-03T15:09:18.234Z,14.20
2022-11-03T15:11:45.403Z,14.20
2022-11-03T15:14:12.831Z,14.20
2022-11-03T15:16:40.261Z,14.20
2022-11-03T15:19:07.743Z,14.20
2022-11-03T15:21:34.418Z,14.20
2022-11-03T15:26:47.870Z,14.10
2022-11-03T15:29:14.459Z,14.00
2022-11-03T15:31:47.177Z,13.40
2022-11-03T15:34:15.137Z,14.00
2022-11-03T15:36:41.800Z,14.00
2022-11-03T15:39:08.439Z,14.00
2022-11-03T15:41:35.253Z,14.00
2022-11-03T15:44:01.882Z,13.90
2022-11-03T15:46:28.480Z,13.90
2022-11-03T15:48:56.554Z,13.80
2022-11-03T15:51:23.254Z,13.90
2022-11-03T15:53:54.949Z,13.90
2022-11-03T15:56:24.970Z,13.80
2022-11-03T15:58:51.561Z,13.80
2022-11-03T16:01:18.255Z,13.70
2022-11-03T16:03:45.015Z,13.80
2022-11-03T16:06:11.673Z,13.80
2022-11-03T16:08:38.248Z,13.70
2022-11-03T16:11:05.018Z,13.70
2022-11-03T16:13:31.605Z,13.70
2022-11-03T16:15:58.306Z,13.70
2022-11-03T16:18:25.213Z,13.70
2022-11-03T16:20:51.805Z,13.70
2022-11-03T16:23:18.388Z,13.70
2022-11-03T16:25:45.019Z,13.70
2022-11-03T16:28:11.685Z,13.70
2022-11-03T16:30:38.681Z,13.70
2022-11-03T16:33:05.922Z,13.70
2022-11-03T16:35:32.585Z,13.70
2022-11-03T16:37:59.235Z,13.60
2022-11-03T16:40:25.871Z,13.70
2022-11-03T16:42:52.543Z,13.60
2022-11-03T16:45:21.998Z,13.60
2022-11-03T16:47:50.500Z,13.70
2022-11-03T16:50:18.313Z,13.60
2022-11-03T16:52:46.106Z,13.50
2022-11-03T16:55:13.221Z,13.60
2022-11-03T16:57:39.895Z,13.60
2022-11-03T17:00:12.616Z,13.50
2022-11-03T17:02:39.542Z,13.50
2022-11-03T17:05:06.429Z,13.60
2022-11-03T17:07:33.354Z,13.50
2022-11-03T17:10:00.812Z,13.50
2022-11-03T17:12:27.467Z,13.50
2022-11-03T17:14:56.664Z,13.60
2022-11-03T17:17:23.904Z,13.50
2022-11-03T17:19:50.855Z,13.50
2022-11-03T17:22:17.533Z,13.50
2022-11-03T17:24:44.258Z,13.40
2022-11-03T17:27:20.647Z,13.90
2022-11-03T17:29:51.435Z,14.40
2022-11-03T17:32:29.806Z,14.70
2022-11-03T17:34:58.016Z,14.90
2022-11-03T17:37:25.836Z,15.00
2022-11-03T17:39:52.522Z,15.00
2022-11-03T17:42:27.476Z,15.00
2022-11-03T17:44:55.879Z,15.20
2022-11-03T17:47:23.615Z,14.80
2022-11-03T17:49:50.486Z,14.40
2022-11-03T17:52:27.995Z,14.20
2022-11-03T17:54:57.693Z,13.90
2022-11-03T17:57:25.589Z,13.80
2022-11-03T17:59:55.245Z,13.80
2022-11-03T18:02:24.144Z,13.50
2022-11-03T18:04:53.073Z,13.50
2022-11-03T18:07:22.848Z,13.50
2022-11-03T18:09:49.433Z,13.40
2022-11-03T18:12:36.542Z,13.30
2022-11-03T18:15:04.403Z,13.20
2022-11-03T18:17:31.148Z,13.20
2022-11-03T18:19:57.748Z,13.20
2022-11-03T18:22:24.463Z,13.10
2022-11-03T18:24:52.269Z,13.20
2022-11-03T18:27:24.165Z,13.10
2022-11-03T18:29:51.828Z,13.10
2022-11-03T18:32:19.479Z,13.10
2022-11-03T18:34:46.122Z,13.00
2022-11-03T18:37:12.888Z,13.10
2022-11-03T18:39:39.863Z,13.00
2022-11-03T18:42:13.108Z,13.00
2022-11-03T18:44:41.390Z,13.00
2022-11-03T18:47:08.031Z,13.00
2022-11-03T18:49:34.692Z,12.90
2022-11-03T18:52:13.999Z,12.90
2022-11-03T18:54:50.264Z,12.80
2022-11-03T18:57:21.726Z,12.80
2022-11-03T18:59:49.373Z,12.80
2022-11-03T19:02:18.637Z,12.80
2022-11-03T19:04:45.883Z,12.80
2022-11-03T19:07:14.767Z,12.80
2022-11-03T19:09:43.027Z,13.80
2022-11-03T19:12:13.842Z,14.80
2022-11-03T19:14:42.428Z,15.20
2022-11-03T19:17:23.951Z,15.40
2022-11-03T19:19:52.391Z,15.60
2022-11-03T19:22:21.401Z,15.70
2022-11-03T19:24:48.310Z,15.60
2022-11-03T19:27:25.515Z,16.80
2022-11-03T19:29:52.891Z,15.60
2022-11-03T19:32:27.842Z,15.60
2022-11-03T19:35:00.920Z,15.70
2022-11-03T19:37:35.127Z,15.80
2022-11-03T19:40:05.836Z,15.30
2022-11-03T19:42:36.465Z,14.70
2022-11-03T19:45:05.917Z,14.20
2022-11-03T19:47:35.973Z,13.90
2022-11-03T19:50:05.020Z,13.40
2022-11-03T19:52:32.595Z,13.20
2022-11-03T19:55:02.941Z,13.10
2022-11-03T19:57:29.600Z,13.00
2022-11-03T19:59:58.956Z,13.40
2022-11-03T20:02:27.908Z,13.90
2022-11-03T20:04:54.823Z,14.20
2022-11-03T20:07:23.481Z,14.30
2022-11-03T20:09:52.232Z,14.40
2022-11-03T20:12:19.920Z,14.50
2022-11-03T20:14:46.555Z,14.70
2022-11-03T20:17:17.712Z,14.70
2022-11-03T20:19:44.444Z,14.50
2022-11-03T20:22:16.805Z,13.40
2022-11-03T20:24:45.151Z,13.70
2022-11-03T20:27:12.541Z,13.50
2022-11-03T20:29:40.106Z,13.30
2022-11-03T20:32:09.285Z,13.10
2022-11-03T20:34:35.915Z,13.00
2022-11-03T20:37:04.634Z,12.90
2022-11-03T20:39:32.883Z,12.90
2022-11-03T20:41:59.654Z,12.90
2022-11-03T20:44:26.330Z,12.90
2022-11-03T20:46:52.952Z,12.80
2022-11-03T20:49:21.572Z,12.70
2022-11-03T20:51:48.224Z,12.70
2022-11-03T20:54:21.626Z,12.60
2022-11-03T20:56:48.509Z,12.60
2022-11-03T20:59:24.501Z,12.60
2022-11-03T21:01:52.077Z,12.60
2022-11-03T21:04:20.515Z,12.50
2022-11-03T21:06:47.528Z,12.60
2022-11-03T21:09:17.581Z,12.60
2022-11-03T21:11:45.467Z,12.60
2022-11-03T21:14:26.344Z,12.60
2022-11-03T21:17:11.488Z,12.70
2022-11-03T21:19:56.879Z,12.70
2022-11-03T21:25:18.795Z,12.60
2022-11-03T21:27:45.720Z,12.50
2022-11-03T21:30:14.059Z,12.50
2022-11-03T21:32:40.934Z,12.60
2022-11-03T21:35:11.618Z,12.60
2022-11-03T21:37:38.217Z,12.60
2022-11-03T21:40:05.358Z,12.60
2022-11-03T21:42:50.500Z,12.60
2022-11-03T21:45:18.680Z,12.60
2022-11-03T21:48:08.734Z,12.70
2022-11-03T21:50:38.602Z,12.60
2022-11-03T21:53:05.630Z,12.60
2022-11-03T21:55:32.359Z,12.60
2022-11-03T21:57:58.924Z,12.60
2022-11-03T22:00:25.571Z,12.70
2022-11-03T22:02:52.208Z,12.70
2022-11-03T22:05:18.843Z,12.70
2022-11-03T22:07:45.808Z,12.80
2022-11-03T22:10:12.559Z,12.80
2022-11-03T22:12:39.198Z,12.80
2022-11-03T22:15:24.980Z,12.80
2022-11-03T22:17:51.576Z,12.80
2022-11-03T22:20:36.943Z,12.80
2022-11-03T22:23:22.367Z,11.80
2022-11-03T22:26:07.690Z,12.70
2022-11-03T22:28:34.315Z,12.70
2022-11-03T22:31:22.366Z,12.60
2022-11-03T22:34:07.827Z,12.60
2022-11-03T22:36:34.454Z,12.60
2022-11-03T22:39:27.364Z,12.60
2022-11-03T22:42:12.675Z,12.60
2022-11-03T22:44:57.987Z,12.60
2022-11-03T22:47:26.325Z,12.60
2022-11-03T22:49:52.899Z,12.60
2022-11-03T22:52:19.493Z,12.50
2022-11-03T22:54:46.075Z,12.40
2022-11-03T22:57:13.233Z,12.40
2022-11-03T22:59:39.880Z,12.40
2022-11-03T23:02:06.696Z,12.40
2022-11-03T23:04:33.367Z,12.40
2022-11-03T23:06:59.978Z,12.50
2022-11-03T23:09:26.570Z,13.50
2022-11-03T23:11:53.222Z,12.50
2022-11-03T23:14:20.910Z,12.50
2022-11-03T23:16:47.521Z,12.50
2022-11-03T23:19:33.979Z,12.50
2022-11-03T23:22:00.894Z,12.50
2022-11-03T23:24:46.306Z,12.50
2022-11-03T23:27:13.604Z,12.50
2022-11-03T23:29:40.576Z,12.60
2022-11-03T23:32:07.378Z,12.50
2022-11-03T23:34:35.092Z,12.50
2022-11-03T23:37:02.598Z,12.40
2022-11-03T23:39:29.210Z,12.50
2022-11-03T23:41:56.235Z,12.50
2022-11-03T23:44:22.912Z,12.50
2022-11-03T23:47:08.119Z,12.50
2022-11-03T23:49:34.749Z,12.50
2022-11-03T23:52:01.449Z,12.50
2022-11-03T23:54:28.144Z,12.40
2022-11-03T23:57:13.323Z,12.40
2022-11-03T23:59:39.925Z,12.30
